createdAt,value
2022-10-17T00:01:54.325Z,97608.56
2022-10-17T00:04:20.779Z,97616.72
2022-10-17T00:06:47.208Z,97611.03
2022-10-17T00:09:13.738Z,97622.84
2022-10-17T00:11:40.152Z,97614.41
2022-10-17T00:14:06.690Z,97620.84
2022-10-17T00:16:36.871Z,97615.31
2022-10-17T00:19:07.284Z,97618.22
2022-10-17T00:21:34.109Z,97609.00
2022-10-17T00:24:01.184Z,97612.53
2022-10-17T00:26:29.536Z,97618.66
2022-10-17T00:28:56.550Z,97610.53
2022-10-17T00:31:24.412Z,97625.44
2022-10-17T00:33:51.767Z,97626.22
2022-10-17T00:36:21.929Z,97624.22
2022-10-17T00:38:51.317Z,97628.06
2022-10-17T00:41:20.007Z,97630.66
2022-10-17T00:43:54.375Z,97637.56
2022-10-17T00:46:22.088Z,97639.28
2022-10-17T00:48:50.914Z,97625.16
2022-10-17T00:51:20.374Z,97630.66
2022-10-17T00:53:46.905Z,97628.84
2022-10-17T00:56:13.743Z,97642.34
2022-10-17T00:58:40.316Z,97621.16
2022-10-17T01:01:06.711Z,97630.22
2022-10-17T01:03:33.152Z,97639.44
2022-10-17T01:05:59.855Z,97629.31
2022-10-17T01:08:26.821Z,97616.28
2022-10-17T01:11:26.485Z,97640.06
2022-10-17T01:14:02.665Z,97632.72
2022-10-17T01:17:02.921Z,97644.22
2022-10-17T01:20:01.809Z,97643.91
2022-10-17T01:22:40.721Z,97641.41
2022-10-17T01:25:16.396Z,97648.50
2022-10-17T01:27:56.612Z,97643.44
2022-10-17T01:31:00.432Z,97655.41
2022-10-17T01:33:48.255Z,97650.06
2022-10-17T01:36:22.684Z,97645.59
2022-10-17T01:38:53.584Z,97639.13
2022-10-17T01:41:31.049Z,97634.22
2022-10-17T01:44:08.397Z,97641.44
2022-10-17T01:46:37.884Z,97636.81
2022-10-17T01:49:07.964Z,97637.28
2022-10-17T01:51:42.688Z,97634.69
2022-10-17T01:54:18.498Z,97646.03
2022-10-17T01:56:47.985Z,97639.75
2022-10-17T01:59:22.215Z,97625.31
2022-10-17T02:01:52.791Z,97632.34
2022-10-17T02:04:19.629Z,97630.69
2022-10-17T02:06:46.044Z,97625.75
2022-10-17T02:09:24.816Z,97632.81
2022-10-17T02:12:29.740Z,97635.75
2022-10-17T02:15:23.645Z,97636.97
2022-10-17T02:17:52.946Z,97631.00
2022-10-17T02:20:36.493Z,97630.81
2022-10-17T02:23:12.448Z,97639.28
2022-10-17T02:25:46.029Z,97627.31
2022-10-17T02:28:19.742Z,97626.53
2022-10-17T02:30:46.035Z,97637.13
2022-10-17T02:33:20.802Z,97628.38
2022-10-17T02:35:52.052Z,97634.50
2022-10-17T02:38:18.972Z,97632.50
2022-10-17T02:40:46.397Z,97628.03
2022-10-17T02:43:13.707Z,97638.66
2022-10-17T02:45:40.869Z,97640.94
2022-10-17T02:48:30.931Z,97626.94
2022-10-17T02:51:07.657Z,97647.34
2022-10-17T02:53:52.161Z,97644.13
2022-10-17T02:56:21.220Z,97646.25
2022-10-17T02:58:57.008Z,97647.50
2022-10-17T03:01:24.817Z,97630.16
2022-10-17T03:03:51.212Z,97636.78
2022-10-17T03:06:17.634Z,97652.25
2022-10-17T03:08:43.988Z,97643.38
2022-10-17T03:11:10.349Z,97647.69
2022-10-17T03:13:39.686Z,97651.53
2022-10-17T03:16:06.554Z,97651.50
2022-10-17T03:18:32.948Z,97647.69
2022-10-17T03:20:59.313Z,97638.00
2022-10-17T03:23:25.647Z,97655.81
2022-10-17T03:25:52.028Z,97653.81
2022-10-17T03:28:18.404Z,97648.44
2022-10-17T03:30:44.740Z,97661.47
2022-10-17T03:33:11.120Z,97663.94
2022-10-17T03:35:40.221Z,97661.91
2022-10-17T03:38:06.700Z,97664.69
2022-10-17T03:40:33.071Z,97653.19
2022-10-17T03:42:59.417Z,97666.56
2022-10-17T03:45:25.769Z,97675.97
2022-10-17T03:47:52.131Z,97677.91
2022-10-17T03:50:18.514Z,97677.09
2022-10-17T03:52:48.962Z,97684.47
2022-10-17T03:55:16.466Z,97666.81
2022-10-17T03:57:45.400Z,97682.31
2022-10-17T04:00:13.022Z,97682.31
2022-10-17T04:02:39.525Z,97668.78
2022-10-17T04:05:06.470Z,97680.28
2022-10-17T04:07:32.888Z,97689.41
2022-10-17T04:09:59.252Z,97678.91
2022-10-17T04:12:25.595Z,97679.59
2022-10-17T04:14:51.927Z,97679.81
2022-10-17T04:17:18.345Z,97685.81
2022-10-17T04:19:44.708Z,97685.81
2022-10-17T04:22:11.074Z,97705.16
2022-10-17T04:24:37.424Z,97703.91
2022-10-17T04:27:03.910Z,97695.91
2022-10-17T04:29:30.259Z,97691.94
2022-10-17T04:31:56.617Z,97687.91
2022-10-17T04:34:22.959Z,97701.13
2022-10-17T04:36:49.365Z,97699.13
2022-10-17T04:39:15.729Z,97703.28
2022-10-17T04:41:42.365Z,97698.84
2022-10-17T04:44:10.786Z,97699.00
2022-10-17T04:46:37.247Z,97696.09
2022-10-17T04:49:03.664Z,97703.19
2022-10-17T04:51:30.053Z,97702.75
2022-10-17T04:53:56.410Z,97693.38
2022-10-17T04:56:24.110Z,97696.09
2022-10-17T04:58:51.072Z,97693.03
2022-10-17T05:01:20.028Z,97697.19
2022-10-17T05:03:46.657Z,97698.59
2022-10-17T05:06:18.598Z,97690.47
2022-10-17T05:08:45.596Z,97703.56
2022-10-17T05:11:20.440Z,97709.13
2022-10-17T05:13:52.059Z,97712.81
2022-10-17T05:16:18.524Z,97708.66
2022-10-17T05:18:47.428Z,97720.59
2022-10-17T05:21:15.895Z,97721.38
2022-10-17T05:23:42.278Z,97719.97
2022-10-17T05:26:08.644Z,97711.50
2022-10-17T05:28:35.144Z,97721.66
2022-10-17T05:31:06.029Z,97708.31
2022-10-17T05:33:33.216Z,97712.16
2022-10-17T05:35:59.621Z,97724.94
2022-10-17T05:38:26.757Z,97718.78
2022-10-17T05:41:00.478Z,97721.69
2022-10-17T05:43:27.376Z,97721.06
2022-10-17T05:45:54.347Z,97709.19
2022-10-17T05:48:21.807Z,97723.00
2022-10-17T05:50:48.801Z,97729.41
2022-10-17T05:53:16.065Z,97729.16
2022-10-17T05:55:42.443Z,97728.19
2022-10-17T05:58:11.718Z,97733.25
2022-10-17T06:00:44.161Z,97723.69
2022-10-17T06:03:12.343Z,97729.22
2022-10-17T06:05:38.704Z,97727.81
2022-10-17T06:08:05.230Z,97739.69
2022-10-17T06:10:31.578Z,97728.13
2022-10-17T06:12:57.926Z,97737.59
2022-10-17T06:15:24.258Z,97735.59
2022-10-17T06:17:50.818Z,97747.25
2022-10-17T06:20:17.285Z,97742.06
2022-10-17T06:22:43.821Z,97729.03
2022-10-17T06:25:10.374Z,97744.88
2022-10-17T06:27:36.727Z,97728.16
2022-10-17T06:30:04.018Z,97742.00
2022-10-17T06:32:30.813Z,97734.34
2022-10-17T06:34:57.418Z,97740.81
2022-10-17T06:37:23.789Z,97748.63
2022-10-17T06:39:50.130Z,97755.72
2022-10-17T06:42:16.909Z,97751.56
2022-10-17T06:44:43.295Z,97757.41
2022-10-17T06:47:10.238Z,97752.69
2022-10-17T06:49:36.580Z,97756.69
2022-10-17T06:52:02.953Z,97753.00
2022-10-17T06:54:29.381Z,97761.16
2022-10-17T06:56:56.178Z,97756.25
2022-10-17T06:59:22.575Z,97760.53
2022-10-17T07:01:48.965Z,97751.63
2022-10-17T07:04:15.323Z,97762.25
2022-10-17T07:06:41.875Z,97763.00
2022-10-17T07:09:08.286Z,97783.13
2022-10-17T07:11:35.178Z,97772.84
2022-10-17T07:14:02.553Z,97780.06
2022-10-17T07:16:29.454Z,97787.91
2022-10-17T07:18:56.159Z,97776.81
2022-10-17T07:21:22.576Z,97784.66
2022-10-17T07:23:49.103Z,97786.81
2022-10-17T07:26:17.591Z,97786.19
2022-10-17T07:28:46.276Z,97794.94
2022-10-17T07:31:15.995Z,97798.50
2022-10-17T07:33:43.523Z,97792.31
2022-10-17T07:36:09.978Z,97785.22
2022-10-17T07:38:36.694Z,97790.13
2022-10-17T07:41:06.047Z,97783.94
2022-10-17T07:43:33.792Z,97786.84
2022-10-17T07:46:02.626Z,97798.53
2022-10-17T07:48:29.738Z,97803.13
2022-10-17T07:50:56.171Z,97813.09
2022-10-17T07:53:22.528Z,97809.09
2022-10-17T07:55:49.651Z,97805.41
2022-10-17T07:58:16.473Z,97813.53
2022-10-17T08:00:43.378Z,97806.88
2022-10-17T08:03:10.862Z,97811.50
2022-10-17T08:05:37.213Z,97820.28
2022-10-17T08:08:03.695Z,97810.09
2022-10-17T08:10:30.097Z,97826.22
2022-10-17T08:12:57.931Z,97821.91
2022-10-17T08:15:29.351Z,97819.09
2022-10-17T08:17:59.482Z,97816.75
2022-10-17T08:20:25.978Z,97821.16
2022-10-17T08:22:53.744Z,97818.09
2022-10-17T08:25:20.232Z,97810.19
2022-10-17T08:27:46.742Z,97818.44
2022-10-17T08:30:13.452Z,97814.41
2022-10-17T08:32:39.991Z,97817.63
2022-10-17T08:35:06.908Z,97817.63
2022-10-17T08:37:33.598Z,97806.50
2022-10-17T08:40:00.241Z,97812.47
2022-10-17T08:42:45.398Z,97816.28
2022-10-17T08:45:26.922Z,97822.31
2022-10-17T08:47:59.018Z,97822.47
2022-10-17T08:50:48.391Z,97832.88
2022-10-17T08:53:36.244Z,97837.19
2022-10-17T08:59:17.640Z,97836.34
2022-10-17T09:02:02.805Z,97832.31
2022-10-17T09:04:47.531Z,97843.06
2022-10-17T09:07:46.172Z,97833.75
2022-10-17T09:10:28.583Z,97824.16
2022-10-17T09:13:24.518Z,97815.50
2022-10-17T09:16:14.820Z,97824.63
2022-10-17T09:18:46.001Z,97835.94
2022-10-17T09:21:20.838Z,97827.41
2022-10-17T09:24:08.897Z,97841.50
2022-10-17T09:26:39.200Z,97828.16
2022-10-17T09:29:15.598Z,97835.06
2022-10-17T09:34:32.058Z,97839.44
2022-10-17T09:37:00.807Z,97837.91
2022-10-17T09:39:31.792Z,97845.44
2022-10-17T09:41:59.932Z,97856.63
2022-10-17T09:44:47.498Z,97869.31
2022-10-17T09:47:34.456Z,97886.75
2022-10-17T09:50:01.479Z,97882.59
2022-10-17T09:52:36.310Z,97886.75
2022-10-17T09:55:17.426Z,97890.47
2022-10-17T09:58:00.577Z,97892.75
2022-10-17T10:00:30.612Z,97887.19
2022-10-17T10:03:20.237Z,97890.66
2022-10-17T10:06:03.777Z,97889.81
2022-10-17T10:08:34.226Z,97886.06
2022-10-17T10:11:07.876Z,97880.03
2022-10-17T10:13:36.023Z,97877.09
2022-10-17T10:16:32.369Z,97887.50
2022-10-17T10:18:58.939Z,97884.44
2022-10-17T10:21:27.465Z,97882.13
2022-10-17T10:23:59.673Z,97893.00
2022-10-17T10:26:29.532Z,97900.41
2022-10-17T10:29:02.511Z,97898.56
2022-10-17T10:31:39.809Z,97901.19
2022-10-17T10:34:32.726Z,97898.69
2022-10-17T10:37:06.280Z,97878.41
2022-10-17T10:39:32.570Z,97887.81
2022-10-17T10:42:01.223Z,97886.91
2022-10-17T10:44:32.032Z,97900.41
2022-10-17T10:47:28.069Z,97909.47
2022-10-17T10:50:37.558Z,97899.16
2022-10-17T10:53:14.729Z,97897.06
2022-10-17T10:55:51.471Z,97890.88
2022-10-17T10:58:33.127Z,97890.63
2022-10-17T11:01:05.043Z,97888.84
2022-10-17T11:06:18.941Z,97901.34
2022-10-17T11:09:06.516Z,97898.41
2022-10-17T11:11:39.737Z,97904.91
2022-10-17T11:14:38.862Z,97902.22
2022-10-17T11:17:20.398Z,97918.53
2022-10-17T11:19:58.774Z,97921.94
2022-10-17T11:22:32.356Z,97909.44
2022-10-17T11:25:26.163Z,97919.00
2022-10-17T11:27:52.556Z,97916.16
2022-10-17T11:30:19.200Z,97914.38
2022-10-17T11:32:54.071Z,97916.19
2022-10-17T11:35:45.147Z,97903.44
2022-10-17T11:38:21.136Z,97889.72
2022-10-17T11:40:54.118Z,97889.78
2022-10-17T11:43:28.633Z,97893.34
2022-10-17T11:45:59.534Z,97892.66
2022-10-17T11:48:35.601Z,97894.84
2022-10-17T11:54:04.249Z,97895.28
2022-10-17T11:57:02.767Z,97900.22
2022-10-17T11:59:45.839Z,97906.69
2022-10-17T12:02:30.930Z,97899.97
2022-10-17T12:05:20.984Z,97906.16
2022-10-17T12:07:53.154Z,97917.81
2022-10-17T12:10:48.980Z,97923.78
2022-10-17T12:13:27.560Z,97915.84
2022-10-17T12:16:17.949Z,97915.25
2022-10-17T12:18:45.454Z,97922.81
2022-10-17T12:21:12.103Z,97923.84
2022-10-17T12:23:39.924Z,97921.28
2022-10-17T12:26:09.364Z,97919.00
2022-10-17T12:28:39.314Z,97928.88
2022-10-17T12:31:29.620Z,97924.84
2022-10-17T12:34:00.866Z,97915.31
2022-10-17T12:36:27.170Z,97918.91
2022-10-17T12:39:02.717Z,97911.28
2022-10-17T12:41:38.318Z,97924.91
2022-10-17T12:44:13.853Z,97921.03
2022-10-17T12:46:55.706Z,97916.84
2022-10-17T12:49:47.124Z,97915.34
2022-10-17T12:52:28.928Z,97907.16
2022-10-17T12:55:11.616Z,97915.84
2022-10-17T12:57:59.377Z,97908.09
2022-10-17T13:00:43.795Z,97917.88
2022-10-17T13:03:20.253Z,97906.75
2022-10-17T13:05:55.520Z,97902.06
2022-10-17T13:08:32.810Z,97902.78
2022-10-17T13:11:00.680Z,97906.31
2022-10-17T13:13:42.725Z,97914.09
2022-10-17T13:16:09.258Z,97912.44
2022-10-17T13:18:35.916Z,97903.91
2022-10-17T13:21:15.857Z,97914.88
2022-10-17T13:23:42.297Z,97912.84
2022-10-17T13:26:22.138Z,97911.13
2022-10-17T13:29:01.713Z,97915.50
2022-10-17T13:31:31.815Z,97924.91
2022-10-17T13:34:00.753Z,97915.19
2022-10-17T13:36:29.337Z,97919.94
2022-10-17T13:38:57.481Z,97925.78
2022-10-17T13:41:35.729Z,97936.69
2022-10-17T13:44:09.218Z,97926.16
2022-10-17T13:46:38.473Z,97937.34
2022-10-17T13:49:20.075Z,97937.72
2022-10-17T13:51:50.766Z,97941.19
2022-10-17T13:54:34.066Z,97944.28
2022-10-17T13:57:02.004Z,97946.41
2022-10-17T13:59:34.378Z,97945.44
2022-10-17T14:02:01.943Z,97939.06
2022-10-17T14:04:35.509Z,97940.78
2022-10-17T14:07:29.269Z,97956.19
2022-10-17T14:09:57.914Z,97950.72
2022-10-17T14:12:24.324Z,97950.66
2022-10-17T14:15:10.404Z,97958.63
2022-10-17T14:17:38.503Z,97957.44
2022-10-17T14:20:26.640Z,97964.41
2022-10-17T14:23:20.935Z,97961.00
2022-10-17T14:25:40.820Z,97965.63
2022-10-17T14:28:09.108Z,97976.41
2022-10-17T14:30:55.881Z,97965.72
2022-10-17T14:33:28.439Z,97976.34
2022-10-17T14:35:57.523Z,97978.63
2022-10-17T14:38:25.219Z,97975.94
2022-10-17T14:41:23.581Z,97982.28
2022-10-17T14:44:06.386Z,97983.09
2022-10-17T14:46:35.670Z,97984.63
2022-10-17T14:49:15.193Z,97977.97
2022-10-17T14:52:07.517Z,97973.97
2022-10-17T14:54:35.877Z,97977.88
2022-10-17T14:57:14.688Z,97978.63
2022-10-17T14:59:56.426Z,97986.66
2022-10-17T15:02:28.481Z,97981.19
2022-10-17T15:04:55.692Z,97974.47
2022-10-17T15:07:23.481Z,97989.69
2022-10-17T15:09:51.601Z,97983.66
2022-10-17T15:12:20.789Z,97992.34
2022-10-17T15:14:51.547Z,97989.34
2022-10-17T15:17:29.925Z,97989.53
2022-10-17T15:19:57.341Z,98001.81
2022-10-17T15:22:24.288Z,97998.13
2022-10-17T15:24:50.742Z,97989.34
2022-10-17T15:27:19.743Z,97997.09
2022-10-17T15:29:47.068Z,97998.47
2022-10-17T15:32:14.294Z,97996.00
2022-10-17T15:34:40.824Z,97989.97
2022-10-17T15:37:16.330Z,98001.59
2022-10-17T15:39:42.697Z,98004.84
2022-10-17T15:42:11.812Z,97992.13
2022-10-17T15:44:38.177Z,98008.13
2022-10-17T15:47:22.380Z,98009.28
2022-10-17T15:49:48.744Z,98013.41
2022-10-17T15:52:15.092Z,98014.41
2022-10-17T15:54:41.472Z,98011.09
2022-10-17T15:57:17.749Z,98027.19
2022-10-17T15:59:46.804Z,98022.06
2022-10-17T16:02:14.901Z,98028.88
2022-10-17T16:04:41.379Z,98026.25
2022-10-17T16:07:07.970Z,98027.69
2022-10-17T16:09:34.981Z,98028.13
2022-10-17T16:12:01.743Z,98030.72
2022-10-17T16:14:28.416Z,98024.03
2022-10-17T16:16:54.772Z,98036.59
2022-10-17T16:19:21.663Z,98035.25
2022-10-17T16:21:48.055Z,98035.94
2022-10-17T16:24:14.391Z,98024.94
2022-10-17T16:26:41.023Z,98028.28
2022-10-17T16:29:09.218Z,98030.13
2022-10-17T16:31:39.886Z,98030.25
2022-10-17T16:34:06.768Z,98038.56
2022-10-17T16:36:33.128Z,98043.88
2022-10-17T16:38:59.503Z,98046.06
2022-10-17T16:41:54.781Z,98050.75
2022-10-17T16:44:24.101Z,98039.34
2022-10-17T16:46:50.463Z,98041.69
2022-10-17T16:49:18.156Z,98045.59
2022-10-17T16:51:44.564Z,98057.72
2022-10-17T16:54:10.916Z,98053.41
2022-10-17T16:56:37.306Z,98059.09
2022-10-17T16:59:04.113Z,98050.25
2022-10-17T17:01:30.557Z,98049.44
2022-10-17T17:03:57.086Z,98057.50
2022-10-17T17:06:28.631Z,98067.59
2022-10-17T17:08:55.903Z,98067.81
2022-10-17T17:11:24.332Z,98062.28
2022-10-17T17:13:50.684Z,98063.44
2022-10-17T17:16:21.568Z,98070.88
2022-10-17T17:18:50.779Z,98078.13
2022-10-17T17:21:17.255Z,98076.44
2022-10-17T17:23:43.780Z,98068.94
2022-10-17T17:26:13.478Z,98064.94
2022-10-17T17:28:40.793Z,98066.00
2022-10-17T17:31:09.921Z,98066.94
2022-10-17T17:33:38.555Z,98061.00
2022-10-17T17:36:06.349Z,98074.41
2022-10-17T17:38:34.663Z,98091.22
2022-10-17T17:41:01.871Z,98095.69
2022-10-17T17:43:28.595Z,98088.00
2022-10-17T17:45:55.105Z,98094.78
2022-10-17T17:48:21.697Z,98099.69
2022-10-17T17:50:48.359Z,98097.56
2022-10-17T17:53:16.253Z,98098.94
2022-10-17T17:55:42.590Z,98105.41
2022-10-17T17:58:09.721Z,98097.84
2022-10-17T18:00:36.274Z,98107.88
2022-10-17T18:03:02.974Z,98115.59
2022-10-17T18:05:29.765Z,98115.88
2022-10-17T18:07:56.196Z,98122.06
2022-10-17T18:10:22.576Z,98124.22
2022-10-17T18:12:48.931Z,98121.75
2022-10-17T18:15:15.524Z,98123.75
2022-10-17T18:17:42.361Z,98119.72
2022-10-17T18:20:09.361Z,98131.47
2022-10-17T18:22:35.758Z,98122.84
2022-10-17T18:25:02.755Z,98127.91
2022-10-17T18:27:29.174Z,98123.75
2022-10-17T18:29:56.129Z,98134.84
2022-10-17T18:32:22.543Z,98131.44
2022-10-17T18:34:48.884Z,98128.19
2022-10-17T18:37:15.240Z,98126.16
2022-10-17T18:39:41.595Z,98123.41
2022-10-17T18:42:08.098Z,98130.66
2022-10-17T18:44:34.490Z,98134.38
2022-10-17T18:47:03.924Z,98119.69
2022-10-17T18:49:31.101Z,98120.13
2022-10-17T18:51:57.565Z,98125.38
2022-10-17T18:54:24.345Z,98118.44
2022-10-17T18:56:53.127Z,98130.03
2022-10-17T18:59:20.554Z,98113.34
2022-10-17T19:01:47.429Z,98114.44
2022-10-17T19:04:14.338Z,98112.34
2022-10-17T19:06:41.638Z,98109.88
2022-10-17T19:09:10.337Z,98112.00
2022-10-17T19:11:38.178Z,98109.97
2022-10-17T19:14:12.580Z,98110.94
2022-10-17T19:16:42.729Z,98112.63
2022-10-17T19:19:15.486Z,98120.19
2022-10-17T19:21:42.004Z,98106.75
2022-10-17T19:24:12.638Z,98103.19
2022-10-17T19:26:40.618Z,98104.72
2022-10-17T19:29:07.082Z,98115.72
2022-10-17T19:31:34.898Z,98106.47
2022-10-17T19:34:01.300Z,98112.50
2022-10-17T19:36:33.350Z,98095.81
2022-10-17T19:39:02.235Z,98108.47
2022-10-17T19:41:28.733Z,98110.63
2022-10-17T19:43:55.167Z,98102.63
2022-10-17T19:46:24.036Z,98112.50
2022-10-17T19:48:51.183Z,98118.53
2022-10-17T19:51:19.370Z,98108.19
2022-10-17T19:53:46.802Z,98113.13
2022-10-17T19:56:14.096Z,98113.28
2022-10-17T19:58:46.595Z,98112.50
2022-10-17T20:01:19.090Z,98119.75
2022-10-17T20:03:46.449Z,98114.19
2022-10-17T20:06:13.515Z,98120.66
2022-10-17T20:08:40.666Z,98109.56
2022-10-17T20:11:10.434Z,98117.28
2022-10-17T20:13:37.463Z,98105.09
2022-10-17T20:16:06.187Z,98098.78
2022-10-17T20:18:32.655Z,98099.72
2022-10-17T20:21:08.343Z,98112.97
2022-10-17T20:23:35.164Z,98115.28
2022-10-17T20:26:08.600Z,98101.44
2022-10-17T20:28:51.106Z,98102.66
2022-10-17T20:31:18.080Z,98118.19
2022-10-17T20:33:44.604Z,98117.13
2022-10-17T20:36:12.237Z,98108.94
2022-10-17T20:38:38.787Z,98113.13
2022-10-17T20:41:08.598Z,98121.28
2022-10-17T20:43:35.628Z,98123.91
2022-10-17T20:46:15.465Z,98121.28
2022-10-17T20:48:52.680Z,98112.50
2022-10-17T20:51:20.574Z,98125.13
2022-10-17T20:53:48.033Z,98121.59
2022-10-17T20:56:21.178Z,98105.88
2022-10-17T20:58:56.025Z,98126.84
2022-10-17T21:01:23.200Z,98128.84
2022-10-17T21:03:50.119Z,98125.13
2022-10-17T21:06:17.926Z,98112.53
2022-10-17T21:08:46.052Z,98105.41
2022-10-17T21:11:18.338Z,98125.91
2022-10-17T21:13:45.939Z,98121.13
2022-10-17T21:16:18.191Z,98139.63
2022-10-17T21:18:45.667Z,98138.41
2022-10-17T21:21:11.935Z,98139.03
2022-10-17T21:23:39.607Z,98134.22
2022-10-17T21:26:08.804Z,98123.44
2022-10-17T21:28:36.824Z,98133.75
2022-10-17T21:31:20.164Z,98131.91
2022-10-17T21:33:49.818Z,98128.38
2022-10-17T21:36:17.841Z,98115.00
2022-10-17T21:38:46.057Z,98130.22
2022-10-17T21:41:14.469Z,98138.72
2022-10-17T21:43:42.624Z,98134.69
2022-10-17T21:46:14.587Z,98146.56
2022-10-17T21:48:41.564Z,98153.19
2022-10-17T21:51:12.738Z,98150.56
2022-10-17T21:53:39.091Z,98140.72
2022-10-17T21:56:08.226Z,98149.03
2022-10-17T21:58:34.766Z,98139.94
2022-10-17T22:01:06.416Z,98149.47
2022-10-17T22:03:38.646Z,98135.31
2022-10-17T22:06:34.540Z,98137.78
2022-10-17T22:08:55.706Z,98143.16
2022-10-17T22:11:30.847Z,98141.31
2022-10-17T22:13:59.636Z,98135.75
2022-10-17T22:16:26.449Z,98129.00
2022-10-17T22:18:56.417Z,98131.63
2022-10-17T22:21:22.896Z,98135.75
2022-10-17T22:23:58.906Z,98138.22
2022-10-17T22:26:26.677Z,98119.28
2022-10-17T22:28:53.351Z,98122.50
2022-10-17T22:31:20.002Z,98129.47
2022-10-17T22:33:46.628Z,98118.19
2022-10-17T22:36:13.526Z,98121.88
2022-10-17T22:38:39.946Z,98110.19
2022-10-17T22:41:06.564Z,98106.78
2022-10-17T22:43:32.937Z,98113.56
2022-10-17T22:46:01.704Z,98108.50
2022-10-17T22:48:29.155Z,98125.13
2022-10-17T22:50:57.283Z,98110.50
2022-10-17T22:53:26.170Z,98116.03
2022-10-17T22:55:56.817Z,98108.19
2022-10-17T22:58:24.091Z,98092.16
2022-10-17T23:00:51.884Z,98107.72
2022-10-17T23:03:19.394Z,98095.72
2022-10-17T23:05:45.768Z,98097.69
2022-10-17T23:08:13.471Z,98102.94
2022-10-17T23:10:39.878Z,98098.78
2022-10-17T23:13:06.715Z,98094.16
2022-10-17T23:15:33.955Z,98107.88
2022-10-17T23:18:01.271Z,98094.94
2022-10-17T23:20:28.981Z,98093.38
2022-10-17T23:22:55.542Z,98098.19
2022-10-17T23:25:22.495Z,98090.00
2022-10-17T23:27:49.069Z,98097.84
2022-10-17T23:30:15.627Z,98099.53
2022-10-17T23:32:41.997Z,98095.41
2022-10-17T23:35:08.827Z,98094.94
2022-10-17T23:37:35.819Z,98088.31
2022-10-17T23:40:03.435Z,98092.47
2022-10-17T23:42:29.858Z,98086.75
2022-10-17T23:44:56.211Z,98095.84
2022-10-17T23:47:22.598Z,98095.56
2022-10-17T23:49:49.016Z,98087.66
2022-10-17T23:52:15.653Z,98084.59
2022-10-17T23:57:13.289Z,98080.28
2022-10-17T23:59:39.640Z,98091.97
